Terminal Aerodrome Forecast
Issued by NWS

Home | Current Version | Previous Version | Graphics & Text | Print | Product List | Glossary On
Versions: 1 2 3 4 5 6 7 8 9 10 11 12 13 14 15 16 17 18 19
000
FTUS43 KICT 060803 AAA
TAFCNU
TAF AMD
KCNU 060803Z 0608/0706 17009KT P6SM BKN250
     FM061500 18012G22KT P6SM SCT035 BKN250
     FM062100 22014KT P6SM VCTS BKN060CB
     FM070000 22013KT 5SM -TSRA BR BKN060CB=

USA.gov is the U.S. government's official web portal to all federal, state and local government web resources and services.